DIRECCIÓN GENERAL DE AERONÁUTICA CIVIL
DIRECCIÓN METEOROLÓGICA DE CHILE
INFORMACIÓN METAR Y TAF

FIR PUERTO MONTT

Estación: SCTC
SPECI SCTC 191426Z VRB03KT 1500 BR OVC002 08/07 Q1022=

TAF SCTC 191031Z 1912/2012 VRB02KT 0300 FG VV/// TX16/1919Z TN02/ 2010Z BECMG 1915/1916 23005KT 9999 NSW SCT017 BECMG 1923/2001 VRB02KT BECMG 2003/2005 0200 FG VV///=

Estación: SCVD
METAR SCVD 191400Z 00000KT 5000 BR BKN003 07/07 Q1022=

TAF SCVD 191032Z 1912/1924 VRB02KT 0400 FG OVC001 TN04/1912Z TX15/ 1919Z BECMG 1914/1916 14005KT 9999 NSW BKN008=

Estación: SCJO
METAR SCJO 191400Z 00000KT CAVOK 06/05 Q1023=

TAF SCJO 191033Z 1912/1924 15005KT CAVOK TN03/1912Z TX14/1919Z TEMPO 1912/1914 VRB02KT 2000 BR=

Estación: SCTE
METAR SCTE 191400Z 28003KT CAVOK 06/06 Q1024 NOSIG=

TAF SCTE 191150Z 1912/2012 VRB02KT 2000 BCFG SKC TX14/1919Z TN03/ 2010Z BECMG 1913/1915 CAVOK BECMG 1915/1917 21005KT BECMG 2004/2006 03005KT 0VC040=

Estación: SCON
METAR SCON 191400Z AUTO VRB01KT 9000 SKC 08/// Q1024=

TAF SCON 191035Z 1912/1924 02004KT 9999 NSC TN02/1912Z TX14/1919Z=

Estación: SCTN
METAR SCTN NIL=

TAF SCTN NIL=

Estación: SCFT
METAR SCFT 191400Z AUTO VRB02KT 7000 SKC 02/M00 Q1024=

TAF SCFT NIL=

Estación: SCAP
METAR SCAP 191400Z AUTO VRB01KT CAVOK 05/01 Q1030=

TAF SCAP NIL=

Estación: SCMK
METAR SCMK 101400Z 05004KT 9999 BKN030 10/// Q1023=

TAF SCMK 191036Z 1912/1924 05004KT 9999 NSC TN02/1912Z TX14/1919Z BECMG 1920/1922 BKN017=

Estación: SCAS
METAR SCAS 172000Z 07006KT 9999 -RA SCT023 BKN033 OVC053 07/06 Q1008=

TAF SCAS NIL=

Estación: SCCY
METAR SCCY 191400Z 01003KT 9999 SCT046 BKN100 05/M00 Q1023=

TAF SCCY 191037Z 1912/1924 VRB02KT 9999 SCT035 TN01/1912Z TX08/1919Z BECMG 1918/1920 06005KT=

Estación: SCBA
METAR SCBA 191400Z 31013KT 9999 BKN110 04/M02 Q1021=

TAF SCBA 191038Z 1912/2012 30006KT CAVOK TX08/1919Z TN02/2010Z BECMG 1914/1916 30016KT FEW035 BECMG 2000/2002 3006KT TEMPO 2009/2012 6000 -SHRA BKN015 OVC040=

Estación: SCCC
METAR SCCC 172000Z 28025G35KT 9000 RESH OVC030 09/03 Q1001=

TAF SCCC CECF 7687=

Estación: SCHR
METAR SCHR 172000Z 25006KT 9000 RA OVC020 06/04 Q0997=

TAF SCHR 181115Z 1812/1900 29007KT 9000 -SHRA BKN035 TN03/1812Z TX08/1816Z BECMG 1812/1814 26005KT 9999 FEW035=


Volver